Anegada, British Virgin Islands
Current Conditions -  °F | °C
As of 1:00 PM on Friday 24 Oct 2014 (Local Time) from TUPJ Reporting Station
Scattered Clouds Scattered Clouds  
Wind Chill: 88°   Ceiling: Unl
Heat Index: 100°   Visibility: 6mi
Dew Point: 77°   Wind: 9mph
Humidity: 70%   Direction: 140°SE
Pressure: 29.91"   Gusts: NA
Location:  18.73°N, 64.32°W
Report Text: TUPJ 241700Z 14008KT 9999 SCT020 31/25 Q1013 RMK A2993
Loading
Personal Weather Stations






























Interactive Weather Map
Tropical Storm Tracking
New forecast layout! Learn more

10-Day Weather Forecast

Advertisements
Track Severe Weather on mobile